Tiempo atmosférico en la estación meteorológica de Benasque, Huesca (1120 m.)



Fecha
DESCASC
Temp. máxima en grados centígrados (hora)
DESCASC
Temp. mínima en grados centígrados (hora)
DESCASC
Temp. media en grados centígrados
DESCASC
Racha de viento máxima en m/sg (hora)
DESCASC
Velocidad máxima media en intervalos de 10 minutos(hora)
DESCASC
Precipitaciones diarias en mm
DESCASC
Precipitaciones de 00:00 a 06:00 en mm
DESCASC
Precipitaciones de 06:00 a 12:00 en mm
DESCASC
Precipitaciones de 12:00 a 18:00 en mm
DESCASC
Precipitaciones de 18:00 a 24:00 en mm
DESCASC
23-06-2019 29.5 (15:10) 9 (06:00) 19.3 8.61 (15:30) 4.72 (13:10) 0 0 0 0 0
22-06-2019 25.9 (18:10) 6.9 (06:30) 16.4 6.67 (15:10) 4.17 (17:40) 0 0 0 0 0
21-06-2019 21.4 (15:10) 10.1 (23:59) 15.8 6.94 (18:30) 4.17 (15:20) 6 1.6 2.4 2 0
20-06-2019 24.3 (15:10) 10.4 (00:00) 17.3 10.56 (17:10) 5 (16:10) 1.8 0 0.8 0 1
19-06-2019 -- (--) -- (--) -- -- (--) -- (--) -- -- -- -- 0
18-06-2019 -- (--) -- (--) -- -- (--) -- (--) -- 0 0 0 --
17-06-2019 26.7 (17:50) 6 (00:00) 16.4 8.06 (14:10) 4.44 (14:50) 0 0 0 0 0
16-06-2019 24.5 (17:20) 3.9 (00:00) 14.2 7.5 (14:00) 4.72 (15:00) 0 0 0 0 0
15-06-2019 21.6 (17:00) 8.5 (00:00) 15.1 8.61 (16:00) 5 (14:40) 2.6 2.4 0.2 0 0
14-06-2019 21.8 (13:20) 6.9 (00:00) 14.3 10 (15:20) 5 (15:20) 2.2 0 0 2.2 0
13-06-2019 21.8 (16:20) 2.2 (00:00) 12 6.94 (17:00) 4.17 (17:00) 0 0 0 0 0
12-06-2019 16.5 (16:50) -0.5 (-00:0) 8 10 (14:50) 5.28 (17:40) 0 0 0 0 0
11-06-2019 12.2 (00:50) 2 (00:00) 7.1 8.89 (00:40) 4.44 (15:30) 7.8 3.2 1.2 3.2 0.2
10-06-2019 20.5 (16:10) 9.1 (00:00) 14.8 10 (16:30) 5.28 (13:20) 0 0 0 0 0
09-06-2019 23 (17:10) 10.4 (00:00) 16.7 8.61 (14:00) 5.56 (14:00) 0 0 0 0 0
08-06-2019 22.4 (15:40) 1.3 (00:00) 11.8 8.61 (16:10) 4.17 (12:50) 0 0 0 0 0
07-06-2019 18.5 (16:40) 5 (00:00) 11.8 9.44 (10:20) 4.72 (13:40) 4 0 4 0 0
06-06-2019 18.3 (16:50) 2.4 (00:00) 10.3 11.67 (17:20) 7.22 (17:20) 0 0 0 0 0
05-06-2019 18.3 (00:00) 6.3 (00:00) 12.3 9.72 (19:40) 4.44 (21:00) 10.4 0 1.6 8.8 0
04-06-2019 26.7 (16:30) 7.8 (00:00) 17.3 11.39 (13:40) 6.67 (14:10) 0 0 0 0 0
03-06-2019 26.5 (15:00) 10.3 (00:00) 18.4 8.33 (14:50) 4.72 (14:40) 0 0 0 0 0
02-06-2019 28.2 (16:00) 6.7 (00:00) 17.5 7.78 (15:00) 4.72 (15:10) 0.6 0 0 0.2 0.4
01-06-2019 26.7 (16:00) 5.4 (00:00) 16.1 7.78 (18:30) 4.72 (17:30) 0 0 0 0 0
31-05-2019 25.9 (18:10) 3.1 (00:00) 14.5 8.33 (16:00) 5 (16:30) 0 0 0 0 0
30-05-2019 22.5 (15:30) 4.5 (00:00) 13.5 12.22 (13:10) 6.39 (13:00) 0 0 0 0 0
29-05-2019 15.3 (15:30) 7.6 (00:00) 11.5 16.11 (12:30) 7.78 (12:30) 0 0 0 0 0
28-05-2019 16.9 (15:20) 5.7 (00:00) 11.3 16.11 (15:30) 8.61 (16:40) 0 0 0 0 0
27-05-2019 21 (13:10) 2.9 (00:00) 12 12.5 (18:20) 6.94 (18:30) 0 0 0 0 0

Gráficas

Temp. máximas Temp. mínimas Temp. medias Precipitaciones Rachas de viento máximas Velocidades máximas media en intervalos de 10 minutos

Datos horarios

Fecha y hora oficial Temperatura (ºC) Velocidad del viento (km/h) Dirección del viento Racha (km/h) Dirección de racha Precipitación (mm) Presión (hPa) Tendencia (hPa) Humedad (%)
2019-06-25 23:00:00 17.5 2 Este 5 Sudeste 0 -- -- 70
2019-06-25 22:00:00 19.3 3 Este 6 Este 0 -- -- 66
2019-06-25 21:00:00 22.5 3 Nordeste 8 Sur 0 -- -- 60
2019-06-25 20:00:00 27.2 2 Sudeste 20 Oeste 0 -- -- 41
2019-06-25 19:00:00 31.4 14 Oeste 23 Oeste 0 -- -- 30
2019-06-25 18:00:00 32.1 16 Oeste 27 Sudoeste 0 -- -- 27
2019-06-25 17:00:00 32.3 16 Oeste 30 Sudoeste 0 -- -- 28
2019-06-25 16:00:00 31.9 18 Oeste 32 Sudoeste 0 -- -- 30
2019-06-25 15:00:00 31.3 21 Oeste 34 Sudoeste 0 -- -- 30
2019-06-25 14:00:00 31.2 17 Oeste 29 Sudoeste 0 -- -- 30
2019-06-25 13:00:00 29.9 15 Oeste 31 Sudoeste 0 -- -- 32
2019-06-25 12:00:00 28.5 16 Sudoeste 27 Oeste 0 -- -- 33
2019-06-25 11:00:00 26.1 3 Oeste 5 Oeste 0 -- -- 46
2019-06-25 10:00:00 22.3 0 Calma 7 Este 0 -- -- 49
2019-06-25 09:00:00 16.4 0 Calma 4 Sudeste 0 -- -- 68
2019-06-25 08:00:00 9.8 0 Calma 5 Sudeste 0 -- -- 92
2019-06-25 07:00:00 9.9 0 Calma 6 Este 0 -- -- 91
2019-06-25 06:00:00 9.9 2 Sudeste 7 Sudeste 0 -- -- 90
2019-06-25 05:00:00 10.4 0 Calma 5 Sudeste 0 -- -- 89
2019-06-25 04:00:00 10.8 0 Calma 5 Sudeste 0 -- -- 88
2019-06-25 03:00:00 11.3 0 Calma 5 Sudeste 0 -- -- 86
2019-06-25 02:00:00 12 3 Sudeste 5 Sudeste 0 -- -- 83
2019-06-25 01:00:00 13.3 2 Este 7 Sudeste 0 -- -- 77
2019-06-25 00:00:00 14.3 0 Calma 7 Sudeste 0 -- -- 75
2019-06-24 23:00:00 16.1 3 Sudeste 8 Este 0 -- -- 70
2019-06-24 22:00:00 18.1 0 Calma 5 Sudeste 0 -- -- 64
2019-06-24 21:00:00 21 2 Este 13 Noroeste 0 -- -- 59
2019-06-24 20:00:00 24.9 4 Sudoeste 22 Oeste 0 -- -- 36
2019-06-24 19:00:00 28.2 14 Oeste 26 Oeste 0 -- -- 29
2019-06-24 18:00:00 28.8 13 Oeste 27 Sudoeste 0 -- -- 28
2019-06-24 17:00:00 29 15 Oeste 29 Oeste 0 -- -- 27
2019-06-24 16:00:00 28.8 19 Oeste 35 Oeste 0 -- -- 29
2019-06-24 15:00:00 27.7 19 Sudoeste 38 Oeste 0 -- -- 28
2019-06-24 14:00:00 28.4 19 Sudoeste 38 Oeste 0 -- -- 29
2019-06-24 13:00:00 27.8 18 Sudoeste 36 Oeste 0 -- -- 30
2019-06-24 12:00:00 26.5 19 Oeste 32 Oeste 0 -- -- 31
2019-06-24 11:00:00 25.5 4 Este 8 Este 0 -- -- 46
2019-06-24 10:00:00 21.1 3 Este 6 Este 0 -- -- 61
2019-06-24 09:00:00 16.1 3 Este 6 Oeste 0 -- -- 80
2019-06-24 08:00:00 11 3 Sudeste 6 Noroeste 0 -- -- 95
2019-06-24 07:00:00 11 2 Nordeste 6 Sudoeste 0 -- -- 95
2019-06-24 06:00:00 11.1 0 Calma 5 Sudeste 0 -- -- 95
2019-06-24 05:00:00 11.9 0 Calma 4 Sudeste 0 -- -- 93
2019-06-24 04:00:00 12.5 0 Calma 4 Sudoeste 0 -- -- 91
2019-06-24 03:00:00 12.8 2 Este 5 Este 0 -- -- 90
2019-06-24 02:00:00 13.4 0 Calma 5 Sudoeste 0 -- -- 88
2019-06-24 01:00:00 14.3 2 Este 6 Sudeste 0 -- -- 85
2019-06-24 00:00:00 15.2 3 Norte 7 Sudeste 0 -- -- 82
2019-06-23 23:00:00 16.4 2 Este 6 Sudeste 0 -- -- 77
2019-06-23 22:00:00 17.8 3 Este 6 Sudeste 0 -- -- 74
2019-06-23 21:00:00 20.7 3 Este 10 Noroeste 0 -- -- 62
2019-06-23 20:00:00 24.1 0 Calma 16 Oeste 0 -- -- 55
2019-06-23 19:00:00 27.6 9 Oeste 24 Sudoeste 0 -- -- 39
2019-06-23 18:00:00 28.4 13 Oeste 24 Sudoeste 0 -- -- 34
2019-06-23 17:00:00 28.3 13 Sudoeste 26 Sudoeste 0 -- -- 35
2019-06-23 16:00:00 29.1 8 Sudoeste 31 Sudoeste 0 -- -- 37
2019-06-23 15:00:00 28.5 10 Sur 31 Sudoeste 0 -- -- 38
2019-06-23 14:00:00 27.6 12 Sudoeste 31 Sur 0 -- -- 37
2019-06-23 13:00:00 27 10 Sudoeste 19 Sudoeste 0 -- -- 42
2019-06-23 12:00:00 24.8 3 Noroeste 6 Oeste 0 -- -- 44
2019-06-23 11:00:00 21.8 2 Oeste 5 Nordeste 0 -- -- 53
2019-06-23 10:00:00 19.2 2 Noroeste 4 Noroeste 0 -- -- 63
2019-06-23 09:00:00 15.4 0 Calma 5 Sudeste 0 -- -- 79
2019-06-23 08:00:00 10.1 0 Calma 3 Este 0 -- -- 97
2019-06-23 07:00:00 9.2 0 Calma 4 Este 0 -- -- 97
2019-06-23 06:00:00 9 0 Calma 4 Sudeste 0 -- -- 97
2019-06-23 05:00:00 9.4 0 Calma 4 Sudoeste 0 -- -- 96
2019-06-23 04:00:00 9.7 3 Este 5 Nordeste 0 -- -- 96
2019-06-23 03:00:00 10.1 0 Calma 4 Sudeste 0 -- -- 94
2019-06-23 02:00:00 11.1 0 Calma 6 Sudeste 0 -- -- 91
2019-06-23 01:00:00 11.9 3 Sur 5 Sudeste 0 -- -- 88
2019-06-23 00:00:00 12.8 0 Calma 5 Sudeste 0 -- -- 85
2019-06-22 23:00:00 13.9 3 Sudeste 6 Sudeste 0 -- -- 82
2019-06-22 22:00:00 15.5 4 Este 8 Sudeste 0 -- -- 77
2019-06-22 21:00:00 17.9 2 Sudeste 10 Sudoeste 0 -- -- 69
2019-06-22 20:00:00 21.4 5 Oeste 20 Oeste 0 -- -- 55
2019-06-22 19:00:00 24.7 12 Sudoeste 23 Sudoeste 0 -- -- 44
2019-06-22 18:00:00 25.4 12 Sudoeste 24 Oeste 0 -- -- 40
2019-06-22 17:00:00 25.4 12 Sudoeste 24 Sudoeste 0 -- -- 41
2019-06-22 16:00:00 24.9 13 Oeste 24 Sudoeste 0 -- -- 38
2019-06-22 15:00:00 24.2 13 Sudoeste 24 Oeste 0 -- -- 38
2019-06-22 14:00:00 24 7 Oeste 17 Oeste 0 -- -- 37
2019-06-22 13:00:00 22.4 5 Sudoeste 11 Sudoeste 0 -- -- 42
2019-06-22 12:00:00 21.3 4 Sudoeste 12 Sudoeste 0 -- -- 46
2019-06-22 11:00:00 19.1 5 Sudoeste 9 Sudoeste 0 -- -- 59
2019-06-22 10:00:00 17 2 Este 6 Sudeste 0 -- -- 59
2019-06-22 09:00:00 11.6 2 Nordeste 3 Nordeste 0 -- -- 98
2019-06-22 08:00:00 7.8 3 Sudoeste 8 Oeste 0 -- -- 100
2019-06-22 07:00:00 7.3 3 Sur 11 Norte 0 -- -- 100
2019-06-22 06:00:00 7 0 Calma 3 Sudeste 0 -- -- 99
2019-06-22 05:00:00 7.5 0 Calma 4 Sudeste 0 -- -- 99
2019-06-22 04:00:00 8.1 0 Calma 4 Sudeste 0 -- -- 99
2019-06-22 03:00:00 9 0 Calma 4 Sudeste 0 -- -- 99
2019-06-22 02:00:00 9.1 0 Calma 4 Sudeste 0 -- -- 98
2019-06-22 01:00:00 9.3 2 Sudeste 5 Oeste 0 -- -- 97
2019-06-22 00:00:00 10.1 2 Sudeste 4 Sudeste 0 -- -- 97
2019-06-21 23:00:00 10.3 2 Este 5 Sudeste 0 -- -- 96
2019-06-21 22:00:00 11.4 0 Calma 6 Sudeste 0 -- -- 95
2019-06-21 21:00:00 13.4 3 Sudeste 4 Sudeste 0 -- -- 90
2019-06-21 20:00:00 16 0 Calma 10 Oeste 0 -- -- 71
2019-06-21 19:00:00 17.7 5 Sur 25 Sudoeste 0 -- -- 63
2019-06-21 18:00:00 19 5 Sudoeste 16 Sudoeste 1 -- -- 69
2019-06-21 17:00:00 15.4 5 Sur 16 Oeste 1 -- -- 87
2019-06-21 16:00:00 19.1 10 Oeste 22 Sudoeste 0 -- -- 59
2019-06-21 15:00:00 21.1 14 Sudoeste 22 Sudoeste 0 -- -- 63
2019-06-21 14:00:00 19.9 11 Sudoeste 20 Sudoeste 0 -- -- 64
2019-06-21 13:00:00 18.3 4 Sudoeste 12 Oeste 0 -- -- 67
2019-06-21 12:00:00 17 6 Sudoeste 10 Sudoeste 0 -- -- 69
2019-06-21 11:00:00 16.4 3 Noroeste 10 Nordeste 1.4 -- -- 80
2019-06-21 10:00:00 13.3 2 Nordeste 6 Oeste 0 -- -- 97
2019-06-21 09:00:00 13 0 Calma 4 Sudoeste 0.2 -- -- 98
2019-06-21 08:00:00 12.4 0 Calma 4 Sudeste 0.6 -- -- 98
2019-06-21 07:00:00 12.3 0 Calma 4 Este 0.2 -- -- 98
2019-06-21 06:00:00 12.3 0 Calma 7 Oeste 0 -- -- 98
2019-06-21 05:00:00 12.4 0 Calma 10 Oeste 0 -- -- 98
2019-06-21 04:00:00 12.8 2 Este 5 Este 0.2 -- -- 97
2019-06-21 03:00:00 13.1 4 Sudeste 17 Sudoeste 0.6 -- -- 96
2019-06-21 02:00:00 13.2 3 Este 12 Sudoeste 0.8 -- -- 95
2019-06-21 01:00:00 13 3 Este 10 Sudoeste 0 -- -- 94
2019-06-21 00:00:00 13.4 3 Sudeste 9 Este 0 -- -- 94
2019-06-20 23:00:00 14.1 3 Nordeste 7 Norte 0.2 -- -- 91
2019-06-20 22:00:00 14.4 2 Sudeste 10 Norte 0 -- -- 89
2019-06-20 21:00:00 16.1 4 Nordeste 13 Norte 0 -- -- 84
2019-06-20 20:00:00 17.2 5 Noroeste 24 Sudoeste 0.8 -- -- 71
2019-06-20 19:00:00 20.1 4 Sudoeste 29 Oeste 0 -- -- 58
2019-06-20 18:00:00 22.5 5 Sudoeste 38 Sudoeste 0 -- -- 49
2019-06-20 17:00:00 24.1 11 Sur 34 Sudoeste 0 -- -- 43
2019-06-20 16:00:00 23.9 11 Sudoeste 28 Oeste 0 -- -- 43
2019-06-20 15:00:00 23.6 13 Oeste 27 Oeste 0 -- -- 49
2019-06-20 14:00:00 23.7 15 Oeste 22 Oeste 0 -- -- 51
2019-06-20 13:00:00 22.3 5 Sur 12 Sudeste 0 -- -- 60
2019-06-20 12:00:00 18.5 4 Este 9 Este 0 -- -- 73
2019-06-20 11:00:00 14.7 2 Nordeste 5 Sur 0 -- -- 87
2019-06-20 10:00:00 13.2 2 Este 6 Oeste 0 -- -- 91
2019-06-20 09:00:00 12.4 3 Sudoeste 6 Oeste 0 -- -- 93
2019-06-20 08:00:00 11.7 3 Sudeste 6 Sudeste 0.4 -- -- 94
2019-06-20 07:00:00 11.8 5 Este 14 Sudoeste 0.4 -- -- 88
2019-06-20 06:00:00 11.7 5 Nordeste 9 Oeste 0 -- -- 84
2019-06-20 05:00:00 10.7 0 Calma 5 Sudoeste 0 -- -- 87
2019-06-20 04:00:00 10.6 3 Sudoeste 8 Oeste 0 -- -- 86
2019-06-20 03:00:00 10.7 0 Calma 6 Sudoeste 0 -- -- 86
2019-06-20 02:00:00 11.5 0 Calma 6 Sudeste 0 -- -- 82
2019-06-20 01:00:00 12.1 0 Calma 6 Sudeste 0 -- -- 79
2019-06-20 00:00:00 12.7 3 Nordeste 5 Oeste 0 -- -- 79
2019-06-19 23:00:00 13.9 2 Sudeste 5 Sudeste 0 -- -- 75
2019-06-19 22:00:00 14.3 3 Este 6 Sudeste 0 -- -- 72
2019-06-19 21:00:00 17.1 4 Este 6 Este 0 -- -- 64
2019-06-19 20:00:00 18.9 3 Este 12 Oeste 0 -- -- 63
2019-06-19 19:00:00 22.4 8 Oeste 22 Oeste 0 -- -- 41
2019-06-19 18:00:00 25.3 14 Sudoeste 28 Sudoeste 0 -- -- 37
2019-06-19 17:00:00 25 17 Sudoeste 31 Oeste 0 -- -- 35
2019-06-19 16:00:00 25.1 18 Sudoeste 33 Sudoeste 0 -- -- 34
2019-06-19 15:00:00 24.4 18 Sudoeste -- -- -- -- -- 32
2019-06-19 14:00:00 25.1 18 Oeste 34 Sudoeste 0 -- -- 32
2019-06-19 13:00:00 24.3 16 Sudoeste 31 Oeste 0 -- -- 34
2019-06-19 12:00:00 23 19 Sudoeste 29 Sudoeste 0 -- -- 34
2019-06-19 11:00:00 21.4 5 Sudoeste 9 Sudoeste 0 -- -- 41
2019-06-19 10:00:00 19 0 Calma 6 Este 0 -- -- 48
2019-06-19 09:00:00 13.8 0 Calma 4 Sudeste 0 -- -- 71
2019-06-19 08:00:00 7.2 2 Este 5 Este 0 -- -- 91
2019-06-19 07:00:00 6.6 0 Calma -- -- -- -- -- 89
2019-06-19 06:00:00 -- -- -- -- -- -- -- -- --
2019-06-19 05:00:00 -- -- -- -- -- -- -- -- --
2019-06-19 04:00:00 -- -- -- -- -- -- -- -- --
2019-06-19 03:00:00 -- -- -- -- -- -- -- -- --
2019-06-19 02:00:00 -- -- -- -- -- -- -- -- --
2019-06-19 01:00:00 -- -- -- -- -- -- -- -- --
2019-06-19 00:00:00 -- -- -- -- -- -- -- -- --
2019-06-18 23:00:00 -- -- -- -- -- -- -- -- --
2019-06-18 22:00:00 -- -- -- -- -- -- -- -- --
2019-06-18 21:00:00 -- -- -- -- -- -- -- -- --
2019-06-18 20:00:00 -- -- -- -- -- -- -- -- --
2019-06-18 19:00:00 24.7 11 Sudoeste 32 Oeste 0 -- -- 33
2019-06-18 18:00:00 26.8 17 Oeste 34 Sudoeste 0 -- -- 30
2019-06-18 17:00:00 26.8 16 Oeste 31 Oeste 0 -- -- 32
2019-06-18 16:00:00 26.3 15 Oeste 35 Sudoeste 0 -- -- 34
2019-06-18 15:00:00 26.7 19 Sudoeste 35 Sudoeste 0 -- -- 33
2019-06-18 14:00:00 27 13 Sudoeste 29 Sudoeste 0 -- -- 34
2019-06-18 13:00:00 25.2 14 Oeste 23 Oeste 0 -- -- 37
2019-06-18 12:00:00 24.4 4 Oeste 9 Oeste 0 -- -- 41
2019-06-18 11:00:00 21 2 Sudeste 6 Nordeste 0 -- -- 51
2019-06-18 10:00:00 16.7 0 Calma 8 Oeste 0 -- -- 68
2019-06-18 09:00:00 14.2 2 Sudoeste 4 Oeste 0 -- -- 80
2019-06-18 08:00:00 10.5 0 Calma 5 Oeste 0 -- -- 91
2019-06-18 07:00:00 10.1 0 Calma 11 Sudoeste 0 -- -- 90
2019-06-18 06:00:00 11.1 3 Nordeste 8 Sudeste 0 -- -- 87
2019-06-18 05:00:00 10.9 3 Sudeste 5 Oeste 0 -- -- 88
2019-06-18 04:00:00 10.3 0 Calma 4 Este 0 -- -- 87
2019-06-18 03:00:00 9.9 2 Sudeste 5 Sudeste -- -- -- 86
2019-06-18 02:00:00 10.3 0 Calma 5 Sudeste 0 -- -- 84
2019-06-18 01:00:00 11.9 0 Calma 7 Oeste 0 -- -- 78
2019-06-18 00:00:00 12.7 4 Sudeste 8 Oeste 0 -- -- 76
2019-06-17 23:00:00 13.9 3 Sudeste 6 Sudeste 0 -- -- 67
2019-06-17 22:00:00 14.6 3 Este 7 Nordeste 0 -- -- 68
2019-06-17 21:00:00 17.2 3 Este 6 Este 0 -- -- 59
2019-06-17 20:00:00 21.3 2 Sudeste 14 Oeste 0 -- -- 49
2019-06-17 19:00:00 25.1 11 Sudoeste 20 Sudoeste 0 -- -- 32
2019-06-17 18:00:00 26.7 10 Sudoeste 21 Sudoeste 0 -- -- 32
2019-06-17 17:00:00 26.5 14 Oeste 23 Oeste 0 -- -- 32
2019-06-17 16:00:00 25.5 13 Oeste 27 Oeste 0 -- -- 33
2019-06-17 15:00:00 26.2 15 Sudoeste 29 Oeste 0 -- -- 32
2019-06-17 14:00:00 25.9 12 Oeste 24 Sudoeste 0 -- -- 33
2019-06-17 13:00:00 25.3 11 Oeste 22 Sudoeste 0 -- -- 32
2019-06-17 12:00:00 24.1 4 Sudeste 10 Oeste 0 -- -- 43
2019-06-17 11:00:00 21.7 4 Oeste 6 Este 0 -- -- 45
2019-06-17 10:00:00 18.4 2 Sudoeste 5 Nordeste 0 -- -- 47
2019-06-17 09:00:00 13.3 3 Este 5 Este 0 -- -- 76
2019-06-17 08:00:00 6.5 2 Este 4 Este 0 -- -- 97
2019-06-17 07:00:00 6 0 Calma 5 Sudeste 0 -- -- 96
2019-06-17 06:00:00 6.2 3 Este 5 Sudeste 0 -- -- 96
2019-06-17 05:00:00 6.8 0 Calma 4 Sudeste 0 -- -- 94
2019-06-17 04:00:00 7.4 0 Calma 5 Sudeste 0 -- -- 93
2019-06-17 03:00:00 8 3 Este 6 Sudeste 0 -- -- 91
2019-06-17 02:00:00 9.2 2 Sudeste 5 Sudeste 0 -- -- 87
2019-06-17 01:00:00 10.1 2 Sudoeste 4 Sudoeste 0 -- -- 84
2019-06-17 00:00:00 10.9 2 Este 4 Sudeste 0 -- -- 82
2019-06-16 23:00:00 12.2 3 Sudeste 5 Sudeste 0 -- -- 76
2019-06-16 22:00:00 14.1 3 Este 6 Nordeste 0 -- -- 70
2019-06-16 21:00:00 17.4 3 Sudeste 13 Oeste 0 -- -- 63
2019-06-16 20:00:00 21.3 7 Sudoeste 22 Sudoeste 0 -- -- 38
2019-06-16 19:00:00 23 10 Oeste 22 Sudoeste 0 -- -- 37
2019-06-16 18:00:00 23.9 15 Sudoeste 23 Sudoeste 0 -- -- 36
2019-06-16 17:00:00 24 15 Sudoeste 26 Sudoeste 0 -- -- 35
2019-06-16 16:00:00 23.9 15 Oeste 26 Oeste 0 -- -- 36
2019-06-16 15:00:00 23 17 Sudoeste 27 Sudoeste 0 -- -- 37
2019-06-16 14:00:00 22.4 17 Oeste 27 Oeste 0 -- -- 41
2019-06-16 13:00:00 21.3 13 Oeste 23 Oeste 0 -- -- 41
2019-06-16 12:00:00 20.1 5 Sur 15 Oeste 0 -- -- 48
2019-06-16 11:00:00 17.4 5 Oeste 11 Sudoeste 0 -- -- 50
2019-06-16 10:00:00 16.1 3 Nordeste 5 Nordeste 0 -- -- 59
2019-06-16 09:00:00 10.8 0 Calma 5 Este 0 -- -- 88
2019-06-16 08:00:00 4.6 2 Sur 6 Este 0 -- -- 98
2019-06-16 07:00:00 3.9 0 Calma 5 Oeste 0 -- -- 98
2019-06-16 06:00:00 4.3 2 Este 4 Este 0 -- -- 98
2019-06-16 05:00:00 4.9 0 Calma 6 Este 0 -- -- 98
2019-06-16 04:00:00 5.3 0 Calma 3 Sudeste 0 -- -- 97
2019-06-16 03:00:00 5.7 0 Calma 3 Este 0 -- -- 96
2019-06-16 02:00:00 6.5 2 Este 4 Sudoeste 0 -- -- 95
2019-06-16 01:00:00 7.3 2 Este 5 Sudeste 0 -- -- 92
2019-06-16 00:00:00 8.5 2 Este 5 Sudeste 0 -- -- 88
2019-06-15 23:00:00 10.3 3 Este 17 Nordeste 0 -- -- 79
2019-06-15 22:00:00 13.8 8 Nordeste 28 Nordeste 0 -- -- 60
2019-06-15 21:00:00 14.8 8 Nordeste 29 Norte 0 -- -- 57
2019-06-15 20:00:00 15.9 10 Norte 28 Norte 0 -- -- 55
2019-06-15 19:00:00 18.9 5 Oeste 14 Oeste 0 -- -- 50
2019-06-15 18:00:00 19.5 8 Oeste 22 Sudoeste 0 -- -- 44
2019-06-15 17:00:00 21.6 15 Oeste 31 Sudoeste 0 -- -- 40
2019-06-15 16:00:00 20.3 17 Sudoeste 31 Oeste 0 -- -- 45
2019-06-15 15:00:00 19.4 16 Oeste 29 Oeste 0 -- -- 45
2019-06-15 14:00:00 20.9 14 Oeste 25 Sudoeste 0 -- -- 39
2019-06-15 13:00:00 20.2 14 Oeste 24 Sudoeste 0 -- -- 41
2019-06-15 12:00:00 18.9 15 Oeste 24 Oeste 0 -- -- 45
2019-06-15 11:00:00 17.4 14 Oeste 22 Oeste 0 -- -- 53
2019-06-15 10:00:00 16 4 Sudoeste 9 Sudoeste 0 -- -- 77
2019-06-15 09:00:00 12.8 2 Oeste 5 Oeste 0.2 -- -- 95
2019-06-15 08:00:00 9.6 2 Noroeste 5 Noroeste 0 -- -- 99
2019-06-15 07:00:00 9.1 0 Calma 4 Oeste 0 -- -- 99
2019-06-15 06:00:00 9.6 2 Este 5 Oeste 0 -- -- 98
2019-06-15 05:00:00 10.3 2 Este 8 Este 0 -- -- 98
2019-06-15 04:00:00 10.9 2 Sudoeste 7 Norte 0.6 -- -- 97
2019-06-15 03:00:00 10.9 3 Nordeste 17 Sudoeste 1.8 -- -- 96
2019-06-15 02:00:00 9.5 0 Calma 4 Sudeste 0 -- -- 96
2019-06-15 01:00:00 9.5 0 Calma 5 Sudeste 0 -- -- 94
2019-06-15 00:00:00 9.5 3 Este 4 Sudeste 0 -- -- 94
2019-06-14 23:00:00 9.5 0 Calma 7 Sudeste 0 -- -- 94
2019-06-14 22:00:00 11.2 4 Este 8 Sudeste 0 -- -- 92
2019-06-14 21:00:00 13.5 0 Calma 8 Este 0 -- -- 87
2019-06-14 20:00:00 16.4 0 Calma 7 Oeste 0 -- -- 74
2019-06-14 19:00:00 20.7 5 Sudoeste 13 Sudoeste 0 -- -- 53
2019-06-14 18:00:00 20.6 3 Oeste 8 Sudoeste 0 -- -- 57
2019-06-14 17:00:00 18.4 4 Oeste 13 Nordeste 0.8 -- -- 70
2019-06-14 16:00:00 15 11 Sudeste 36 Sudoeste 1.4 -- -- 80
2019-06-14 15:00:00 21.1 9 Sur 22 Sudoeste 0 -- -- 55
2019-06-14 14:00:00 20.8 11 Oeste 21 Oeste 0 -- -- 52
2019-06-14 13:00:00 20.9 6 Oeste 11 Sudoeste 0 -- -- 50
2019-06-14 12:00:00 19.6 2 Oeste 17 Sudoeste 0 -- -- 50
2019-06-14 11:00:00 20 4 Sudeste 10 Sudeste 0 -- -- 53
2019-06-14 10:00:00 15.7 3 Este 16 Sudoeste 0 -- -- 63
2019-06-14 09:00:00 13.9 5 Noroeste 18 Noroeste 0 -- -- 70
2019-06-14 08:00:00 9.6 6 Sudeste 20 Sudoeste 0 -- -- 86
2019-06-14 07:00:00 7.8 0 Calma 5 Noroeste 0 -- -- 93
2019-06-14 06:00:00 7.3 3 Sudeste 8 Sudeste 0 -- -- 92
2019-06-14 05:00:00 7.4 5 Noroeste 10 Noroeste 0 -- -- 94
2019-06-14 04:00:00 7.1 2 Nordeste 4 Sudeste 0 -- -- 94
2019-06-14 03:00:00 7.3 0 Calma 5 Este 0 -- -- 92
2019-06-14 02:00:00 7.3 2 Este 5 Sudeste 0 -- -- 94
2019-06-14 01:00:00 8.7 3 Nordeste 6 Sudeste 0 -- -- 90
2019-06-14 00:00:00 10.1 4 Este 8 Este 0 -- -- 83
2019-06-13 23:00:00 11.5 2 Noroeste 11 Sudoeste 0 -- -- 80
2019-06-13 22:00:00 12.1 0 Calma 5 Sudeste 0 -- -- 80
2019-06-13 21:00:00 15.3 4 Sudoeste 15 Sudoeste 0 -- -- 75
2019-06-13 20:00:00 17.9 2 Sur 12 Sudoeste 0 -- -- 62
2019-06-13 19:00:00 19.1 8 Oeste 22 Oeste 0 -- -- 50
2019-06-13 18:00:00 18.7 12 Sudoeste 25 Sudoeste 0 -- -- 49
2019-06-13 17:00:00 19.7 15 Sudoeste 25 Sudoeste 0 -- -- 48
2019-06-13 16:00:00 21 6 Sur 14 Sudoeste 0 -- -- 42
2019-06-13 15:00:00 20 5 Sudeste 14 Sudeste 0 -- -- 47
2019-06-13 14:00:00 17.4 5 Sudeste 13 Oeste 0 -- -- 46
2019-06-13 13:00:00 15.7 4 Sudoeste 17 Sudoeste 0 -- -- 46
2019-06-13 12:00:00 14.8 5 Sur 12 Sudoeste 0 -- -- 49
2019-06-13 11:00:00 11.6 0 Calma 3 Noroeste 0 -- -- 71
2019-06-13 10:00:00 9.6 0 Calma 3 Sudeste 0 -- -- 75
2019-06-13 09:00:00 8.4 2 Sudeste 4 Sudeste 0 -- -- 78
2019-06-13 08:00:00 6.3 0 Calma 6 Oeste 0 -- -- 90
2019-06-13 07:00:00 5 0 Calma 4 Sudeste 0 -- -- 94
2019-06-13 06:00:00 4.9 0 Calma 4 Sudeste 0 -- -- 92
2019-06-13 05:00:00 4.5 0 Calma 5 Oeste 0 -- -- 93
2019-06-13 04:00:00 3.1 3 Este 6 Sudeste 0 -- -- 96
2019-06-13 03:00:00 2.2 0 Calma 4 Este 0 -- -- 95
2019-06-13 02:00:00 2.6 0 Calma 4 Sudeste 0 -- -- 94
2019-06-13 01:00:00 3.5 0 Calma 6 Oeste 0 -- -- 92
2019-06-13 00:00:00 4.1 0 Calma 7 Sudeste 0 -- -- 89
2019-06-12 23:00:00 5.5 2 Sudeste 7 Sudeste 0 -- -- 83
2019-06-12 22:00:00 6.8 2 Este 6 Sudeste 0 -- -- 80
2019-06-12 21:00:00 9.9 3 Este 5 Nordeste 0 -- -- 68
2019-06-12 20:00:00 13.2 3 Oeste 18 Sudoeste 0 -- -- 53
2019-06-12 19:00:00 13.8 10 Sudoeste 25 Sudoeste 0 -- -- 41
2019-06-12 18:00:00 14.3 11 Sudoeste 30 Sudoeste 0 -- -- 42
2019-06-12 17:00:00 16.4 13 Sudoeste 29 Oeste 0 -- -- 39
2019-06-12 16:00:00 16.3 15 Sudoeste 28 Sudoeste 0 -- -- 39
2019-06-12 15:00:00 15.1 13 Sudoeste 36 Oeste 0 -- -- 39
2019-06-12 14:00:00 14.6 15 Oeste 28 Oeste 0 -- -- 45
2019-06-12 13:00:00 13.7 13 Sudoeste 28 Oeste 0 -- -- 47
2019-06-12 12:00:00 12.9 15 Oeste 26 Sudoeste 0 -- -- 49
2019-06-12 11:00:00 11.1 9 Sudoeste 21 Sudoeste 0 -- -- 62
2019-06-12 10:00:00 9.2 2 Norte 5 Noroeste 0 -- -- 71
2019-06-12 09:00:00 4.4 0 Calma 4 Este 0 -- -- 98
2019-06-12 08:00:00 -0.2 0 Calma 4 Sudeste 0 -- -- 99
2019-06-12 07:00:00 -0.3 2 Nordeste 4 Este 0 -- -- 99
2019-06-12 06:00:00 -0.2 0 Calma 5 Sudeste 0 -- -- 99
2019-06-12 05:00:00 -0.1 3 Sudoeste 5 Oeste 0 -- -- 99
2019-06-12 04:00:00 -0.1 0 Calma 4 Este 0 -- -- 99
2019-06-12 03:00:00 0.6 2 Este 5 Sudoeste 0 -- -- 98
2019-06-12 02:00:00 1 0 Calma 7 Oeste 0 -- -- 98
2019-06-12 01:00:00 1.5 2 Este 5 Oeste 0 -- -- 98
2019-06-12 00:00:00 2 2 Sur 6 Sudeste 0 -- -- 98
2019-06-11 23:00:00 2.6 3 Sudeste 5 Este 0 -- -- 97
2019-06-11 22:00:00 4.1 2 Sur 9 Sudoeste 0 -- -- 95
2019-06-11 21:00:00 6.5 5 Oeste 13 Sudoeste 0 -- -- 90
2019-06-11 20:00:00 8.9 0 Calma 11 Sudoeste 0 -- -- 77
2019-06-11 19:00:00 8.5 2 Noroeste 18 Sudoeste 0.2 -- -- 81
2019-06-11 18:00:00 9.2 5 Oeste 22 Este 0.2 -- -- 72
2019-06-11 17:00:00 8 5 Nordeste 18 Este 1.4 -- -- 83
2019-06-11 16:00:00 7.2 6 Norte 28 Este 1.2 -- -- 83
2019-06-11 15:00:00 9.7 6 Nordeste 18 Nordeste 0 -- -- 72
2019-06-11 14:00:00 9 4 Nordeste 14 Norte 0.4 -- -- 77
2019-06-11 13:00:00 9.1 4 Norte 9 Este 0 -- -- 82
2019-06-11 12:00:00 8.2 0 Calma 6 Sudoeste 0 -- -- 84
2019-06-11 11:00:00 7.2 3 Sur 7 Oeste 0.2 -- -- 86
2019-06-11 10:00:00 6.9 2 Sudoeste 9 Sudoeste 0.6 -- -- 89
2019-06-11 09:00:00 6.8 5 Oeste 6 Oeste 0 -- -- 91
2019-06-11 08:00:00 5.9 2 Oeste 8 Sudoeste 0.4 -- -- 94
2019-06-11 07:00:00 5.7 2 Sudeste 4 Este 0 -- -- 96
2019-06-11 06:00:00 5.5 0 Calma 4 Noroeste 0.2 -- -- 95
2019-06-11 05:00:00 5.6 0 Calma 3 Sur 0.6 -- -- 95
2019-06-11 04:00:00 6 0 Calma 6 Sudoeste 1.8 -- -- 92
2019-06-11 03:00:00 7.2 4 Sudoeste 18 Oeste 0.6 -- -- 87
2019-06-11 02:00:00 9.9 3 Este 22 Noroeste 0 -- -- 68
2019-06-11 01:00:00 11.7 6 Sudeste 32 Oeste 0 -- -- 49
2019-06-11 00:00:00 10.9 3 Norte 27 Este 0 -- -- 60
2019-06-10 23:00:00 11.5 11 Nordeste 27 Norte 0 -- -- 56
2019-06-10 22:00:00 11.8 10 Nordeste 27 Norte 0 -- -- 57
2019-06-10 21:00:00 13 7 Nordeste 22 Norte 0 -- -- 57
2019-06-10 20:00:00 12.9 10 Nordeste 27 Norte 0 -- -- 56
2019-06-10 19:00:00 13.4 12 Norte 33 Norte 0 -- -- 58
2019-06-10 18:00:00 17.6 6 Sur 24 Sudoeste 0 -- -- 50
2019-06-10 17:00:00 19 5 Sudoeste 36 Sudoeste 0 -- -- 48
2019-06-10 16:00:00 19.5 12 Sur 28 Sudoeste 0 -- -- 44
2019-06-10 15:00:00 18.7 10 Sur 27 Sur 0 -- -- 46
2019-06-10 14:00:00 18 9 Sur 34 Sudoeste 0 -- -- 51
2019-06-10 13:00:00 20 15 Oeste 34 Oeste 0 -- -- 50
2019-06-10 12:00:00 19.3 15 Sudoeste 26 Sudoeste 0 -- -- 50
2019-06-10 11:00:00 18.3 3 Nordeste 14 Este 0 -- -- 59
2019-06-10 10:00:00 16.5 2 Oeste 13 Oeste 0 -- -- 61
2019-06-10 09:00:00 14.1 3 Sur 8 Este 0 -- -- 76
2019-06-10 08:00:00 10.2 0 Calma 8 Sudoeste 0 -- -- 92
2019-06-10 07:00:00 10.5 3 Sur 16 Este 0 -- -- 82
2019-06-10 06:00:00 11.2 6 Este 19 Norte 0 -- -- 80
2019-06-10 05:00:00 10.4 3 Sudeste 6 Sudeste 0 -- -- 90
2019-06-10 04:00:00 9.2 2 Sur 6 Sudoeste 0 -- -- 90
2019-06-10 03:00:00 9.4 0 Calma 9 Oeste 0 -- -- 89
2019-06-10 02:00:00 11.3 4 Sur 13 Sudoeste 0 -- -- 80
2019-06-10 01:00:00 12 4 Este 22 Este 0 -- -- 77
2019-06-10 00:00:00 14 5 Este 23 Nordeste 0 -- -- 68
2019-06-09 23:00:00 15.7 10 Nordeste 28 Nordeste 0 -- -- 61
2019-06-09 22:00:00 16.1 12 Nordeste 28 Norte 0 -- -- 61
2019-06-09 21:00:00 16.9 11 Nordeste 28 Norte 0 -- -- 60
2019-06-09 20:00:00 17.6 2 Este 17 Sur 0 -- -- 59
2019-06-09 19:00:00 21.1 3 Sur 18 Oeste 0 -- -- 46
2019-06-09 18:00:00 21.4 9 Sudoeste 20 Sudoeste 0 -- -- 43
2019-06-09 17:00:00 22.7 11 Oeste 25 Oeste 0 -- -- 43
2019-06-09 16:00:00 21.6 14 Sudoeste 26 Sudoeste 0 -- -- 45
2019-06-09 15:00:00 22.6 15 Oeste 30 Sudoeste 0 -- -- 44
2019-06-09 14:00:00 22.1 20 Sudoeste 31 Sudoeste 0 -- -- 47
2019-06-09 13:00:00 19.9 13 Oeste 23 Sudoeste 0 -- -- 48
2019-06-09 12:00:00 19.8 16 Oeste 23 Sudoeste 0 -- -- 49
2019-06-09 11:00:00 18.4 3 Norte 10 Sudoeste 0 -- -- 59
2019-06-09 10:00:00 16.9 3 Noroeste 5 Oeste 0 -- -- 59
2019-06-09 09:00:00 12.7 4 Oeste 8 Oeste 0 -- -- 85
2019-06-09 08:00:00 11.2 3 Sudeste 7 Noroeste 0 -- -- 92
2019-06-09 07:00:00 10.4 4 Sur 8 Oeste 0 -- -- 94
2019-06-09 06:00:00 10.6 3 Oeste 5 Oeste 0 -- -- 94
2019-06-09 05:00:00 11 3 Este 9 Oeste 0 -- -- 92
2019-06-09 04:00:00 10.7 0 Calma 10 Oeste 0 -- -- 91
2019-06-09 03:00:00 11.6 4 Nordeste 12 Sudoeste 0 -- -- 86
2019-06-09 02:00:00 11.2 0 Calma 9 Este 0 -- -- 89
2019-06-09 01:00:00 11.9 3 Sur 10 Oeste 0 -- -- 88
2019-06-09 00:00:00 13.4 5 Noroeste 14 Sudeste 0 -- -- 78
2019-06-08 23:00:00 12.6 3 Sudeste 8 Sudeste 0 -- -- 79
2019-06-08 22:00:00 13.3 3 Sudeste 9 Sudoeste 0 -- -- 75
2019-06-08 21:00:00 15.7 0 Calma 23 Sudoeste 0 -- -- 66
2019-06-08 20:00:00 18.1 12 Sudoeste 23 Oeste 0 -- -- 53
2019-06-08 19:00:00 18.7 12 Oeste 26 Oeste 0 -- -- 47
2019-06-08 18:00:00 19.8 15 Sudoeste 25 Sudoeste 0 -- -- 40
2019-06-08 17:00:00 20.4 9 Sur 31 Sudoeste 0 -- -- 39
2019-06-08 16:00:00 21.9 11 Sudoeste 27 Sudoeste 0 -- -- 35
2019-06-08 15:00:00 20.8 11 Sudoeste 27 Sudoeste 0 -- -- 34
2019-06-08 14:00:00 19.8 9 Sur 27 Sudoeste 0 -- -- 32
2019-06-08 13:00:00 18.6 10 Sudoeste 27 Sudoeste 0 -- -- 42
2019-06-08 12:00:00 16.4 9 Sudoeste 18 Oeste 0 -- -- 44
2019-06-08 11:00:00 14.4 2 Este 5 Este 0 -- -- 49
2019-06-08 10:00:00 12.8 2 Oeste 4 Este 0 -- -- 55
2019-06-08 09:00:00 8.5 2 Este 6 Oeste 0 -- -- 72
2019-06-08 08:00:00 1.8 0 Calma 5 Oeste 0 -- -- 97
2019-06-08 07:00:00 1.4 3 Sudeste 5 Este 0 -- -- 97
2019-06-08 06:00:00 1.6 0 Calma 7 Sudoeste 0 -- -- 96
2019-06-08 05:00:00 1.8 3 Noroeste 9 Sudeste 0 -- -- 97
2019-06-08 04:00:00 2.1 2 Sudeste 6 Sudeste 0 -- -- 95
2019-06-08 03:00:00 3 3 Este 9 Oeste 0 -- -- 93
2019-06-08 02:00:00 3.3 2 Este 5 Nordeste 0 -- -- 93
2019-06-08 01:00:00 4.1 0 Calma 5 Sudeste 0 -- -- 90
2019-06-08 00:00:00 5 2 Este 5 Sudeste 0 -- -- 88
2019-06-07 23:00:00 6.3 3 Sur 8 Este 0 -- -- 83
2019-06-07 22:00:00 9.3 5 Este 15 Este 0 -- -- 72
2019-06-07 21:00:00 11.8 7 Nordeste 23 Norte 0 -- -- 61
2019-06-07 20:00:00 13.1 8 Norte 24 Sur 0 -- -- 55
2019-06-07 19:00:00 16 10 Sudoeste 24 Sudoeste 0 -- -- 41
2019-06-07 18:00:00 16.1 14 Sudoeste 27 Sudoeste 0 -- -- 43
2019-06-07 17:00:00 18 15 Sudoeste 28 Sudoeste 0 -- -- 41
2019-06-07 16:00:00 18.1 16 Oeste 27 Oeste 0 -- -- 46
2019-06-07 15:00:00 17.4 13 Oeste 28 Sudoeste 0 -- -- 46
2019-06-07 14:00:00 16.2 16 Oeste 30 Sudoeste 0 -- -- 43
2019-06-07 13:00:00 15.4 12 Sur 28 Sur 0 -- -- 50
2019-06-07 12:00:00 12.9 3 Norte 17 Oeste 0.2 -- -- 74
2019-06-07 11:00:00 9.9 8 Sudoeste 34 Sur 0.8 -- -- 88
2019-06-07 10:00:00 10.2 8 Sur 23 Sudoeste 2.8 -- -- 85
2019-06-07 09:00:00 10.9 8 Sur 19 Sudoeste 0.2 -- -- 81
2019-06-07 08:00:00 11.3 5 Sur 15 Sudoeste 0 -- -- 71
2019-06-07 07:00:00 11.2 7 Sur 20 Sudoeste 0 -- -- 68
2019-06-07 06:00:00 11.4 8 Sudoeste 18 Sudoeste 0 -- -- 67
2019-06-07 05:00:00 11.7 8 Sudoeste 24 Oeste 0 -- -- 63
2019-06-07 04:00:00 11.8 12 Sudoeste 23 Sudoeste 0 -- -- 62
2019-06-07 03:00:00 11.7 9 Sudoeste 18 Sur 0 -- -- 62
2019-06-07 02:00:00 11.6 4 Sur 14 Sur 0 -- -- 62
2019-06-07 01:00:00 11.7 7 Sur 25 Sudoeste 0 -- -- 62
2019-06-07 00:00:00 12.8 11 Sudoeste 30 Oeste 0 -- -- 57
2019-06-06 23:00:00 13 11 Sudoeste 31 Oeste 0 -- -- 60
2019-06-06 22:00:00 13.6 21 Oeste 36 Sudoeste 0 -- -- 56
2019-06-06 21:00:00 14.5 22 Oeste 33 Oeste 0 -- -- 59
2019-06-06 20:00:00 15.5 16 Sudoeste 40 Sudoeste 0 -- -- 56
2019-06-06 19:00:00 15.3 18 Sudoeste 34 Sudoeste 0 -- -- 55
2019-06-06 18:00:00 16.5 15 Sudoeste 42 Sudoeste 0 -- -- 43
2019-06-06 17:00:00 18.2 24 Oeste 39 Sudoeste 0 -- -- 39
2019-06-06 16:00:00 17.1 22 Sudoeste 41 Sudoeste 0 -- -- 36
2019-06-06 15:00:00 17.1 22 Oeste 37 Sudoeste 0 -- -- 44
2019-06-06 14:00:00 14.5 15 Oeste 34 Sudoeste 0 -- -- 52
2019-06-06 13:00:00 15.5 14 Sudoeste 35 Sudoeste 0 -- -- 47
2019-06-06 12:00:00 15 19 Oeste 35 Oeste 0 -- -- 54
2019-06-06 11:00:00 11.4 3 Oeste 6 Noroeste 0 -- -- 68
2019-06-06 10:00:00 8.7 0 Calma 5 Sudeste 0 -- -- 79
2019-06-06 09:00:00 6.6 0 Calma 4 Sudeste 0 -- -- 87
2019-06-06 08:00:00 4.3 0 Calma 3 Este 0 -- -- 98
2019-06-06 07:00:00 3.1 0 Calma 4 Noroeste 0 -- -- 98
2019-06-06 06:00:00 2.6 0 Calma 4 Sudeste 0 -- -- 98
2019-06-06 05:00:00 2.7 0 Calma 5 Este 0 -- -- 96
2019-06-06 04:00:00 3.9 2 Este 5 Oeste 0 -- -- 95
2019-06-06 03:00:00 4.5 0 Calma 5 Sudeste 0 -- -- 95
2019-06-06 02:00:00 3.6 2 Sudeste 5 Sudeste 0 -- -- 94
2019-06-06 01:00:00 4.3 2 Este 7 Sudeste 0 -- -- 91
2019-06-06 00:00:00 6.4 8 Sudoeste 19 Este 0 -- -- 80
2019-06-05 23:00:00 8.2 4 Noroeste 22 Norte 0 -- -- 68
2019-06-05 22:00:00 10.4 10 Nordeste 33 Nordeste 0 -- -- 56
2019-06-05 21:00:00 11 16 Nordeste 35 Este 0 -- -- 53
2019-06-05 20:00:00 11.5 13 Nordeste 35 Nordeste 0 -- -- 53
2019-06-05 19:00:00 13.9 10 Nordeste 27 Este 0 -- -- 49
2019-06-05 18:00:00 12.8 10 Nordeste 31 Nordeste 0 -- -- 53
2019-06-05 17:00:00 12.7 13 Nordeste 27 Nordeste 0.6 -- -- 66
2019-06-05 16:00:00 10 11 Oeste 27 Noroeste 0.6 -- -- 79
2019-06-05 15:00:00 12.4 6 Norte 17 Noroeste 0 -- -- 72
2019-06-05 14:00:00 9.5 6 Nordeste 15 Noroeste 2 -- -- 83
2019-06-05 13:00:00 9.6 3 Noroeste 11 Norte 5.6 -- -- 92
2019-06-05 12:00:00 10.3 2 Norte 28 Sudoeste 1.6 -- -- 88
2019-06-05 11:00:00 14.5 8 Sudoeste 29 Sudoeste 0 -- -- 48
2019-06-05 10:00:00 14.8 14 Sudoeste 24 Oeste 0 -- -- 44
2019-06-05 09:00:00 13.6 7 Sudoeste 16 Oeste 0 -- -- 56
2019-06-05 08:00:00 11.9 2 Sudeste 8 Sudoeste 0 -- -- 73
2019-06-05 07:00:00 11.9 2 Este 4 Sudeste 0 -- -- 68
2019-06-05 06:00:00 12.4 0 Calma 5 Sudeste 0 -- -- 66
2019-06-05 05:00:00 14.3 0 Calma 7 Sudoeste 0 -- -- 55
2019-06-05 04:00:00 15.7 0 Calma 14 Sudoeste 0 -- -- 50
2019-06-05 03:00:00 16.8 4 Sur 12 Sudoeste 0 -- -- 45
2019-06-05 02:00:00 17.4 8 Sudoeste 15 Sudoeste 0 -- -- 44
2019-06-05 01:00:00 17.7 4 Sur 15 Sudoeste 0 -- -- 45
2019-06-05 00:00:00 18.3 5 Sur 13 Sur 0 -- -- 45
2019-06-04 23:00:00 18.7 6 Sudoeste 18 Sudoeste 0 -- -- 45
2019-06-04 22:00:00 19.8 5 Sur 20 Sudoeste 0 -- -- 43
2019-06-04 21:00:00 21.1 7 Sur 18 Sudoeste 0 -- -- 39
2019-06-04 20:00:00 22.9 8 Sudoeste 22 Sudoeste 0 -- -- 39
2019-06-04 19:00:00 23.9 10 Sudoeste 25 Oeste 0 -- -- 34
2019-06-04 18:00:00 25.3 17 Sudoeste 33 Oeste 0 -- -- 32
2019-06-04 17:00:00 26.3 14 Sudoeste 31 Sudoeste 0 -- -- 29
2019-06-04 16:00:00 26.1 14 Sur 36 Sudoeste 0 -- -- 26
2019-06-04 15:00:00 25.8 14 Sur 40 Sudoeste 0 -- -- 30
2019-06-04 14:00:00 25.3 24 Sudoeste 41 Sudoeste 0 -- -- 34
2019-06-04 13:00:00 24.3 20 Sudoeste 33 Sudoeste 0 -- -- 37
2019-06-04 12:00:00 23 18 Sudoeste 29 Sudoeste 0 -- -- 44
2019-06-04 11:00:00 21.4 4 Sur 10 Oeste 0 -- -- 48
2019-06-04 10:00:00 19.3 2 Oeste 5 Sudoeste 0 -- -- 56
2019-06-04 09:00:00 16.5 0 Calma 3 Nordeste 0 -- -- 66
2019-06-04 08:00:00 9.3 0 Calma 5 Sudeste 0 -- -- 93
2019-06-04 07:00:00 7.9 2 Este 5 Sudeste 0 -- -- 95
2019-06-04 06:00:00 8.4 0 Calma 4 Este 0 -- -- 93
2019-06-04 05:00:00 8.8 2 Sudoeste 4 Oeste 0 -- -- 93
2019-06-04 04:00:00 8.9 0 Calma 3 Este 0 -- -- 92
2019-06-04 03:00:00 10 3 Este 6 Sudeste 0 -- -- 88
2019-06-04 02:00:00 10.2 0 Calma 4 Sudeste 0 -- -- 88
2019-06-04 01:00:00 11.5 2 Sur 6 Sudeste 0 -- -- 83
2019-06-04 00:00:00 12.1 3 Este 5 Sudoeste 0 -- -- 81
2019-06-03 23:00:00 13.2 3 Este 6 Sudeste 0 -- -- 77
2019-06-03 22:00:00 14.7 3 Este 8 Este 0 -- -- 71
2019-06-03 21:00:00 17.1 0 Calma 4 Sudeste 0 -- -- 68
2019-06-03 20:00:00 21.6 3 Sudoeste 23 Sudoeste 0 -- -- 45
2019-06-03 19:00:00 23.9 12 Sudoeste 29 Sudoeste 0 -- -- 36
2019-06-03 18:00:00 25.5 10 Sudoeste 25 Sudoeste 0 -- -- 34
2019-06-03 17:00:00 24.3 13 Sudoeste 24 Sudoeste 0 -- -- 39
2019-06-03 16:00:00 26.1 13 Sudoeste 29 Oeste 0 -- -- 35
2019-06-03 15:00:00 26.5 13 Sudoeste 30 Sudoeste 0 -- -- 37
2019-06-03 14:00:00 24.3 15 Oeste 23 Oeste 0 -- -- 40
2019-06-03 13:00:00 24.1 13 Sudoeste 23 Sudoeste 0 -- -- 41
2019-06-03 12:00:00 22 6 Sur 16 Sudoeste 0 -- -- 58
2019-06-03 11:00:00 20.9 2 Nordeste 6 Oeste 0 -- -- 54
2019-06-03 10:00:00 19.5 0 Calma 5 Oeste 0 -- -- 61
2019-06-03 09:00:00 16.1 0 Calma 5 Este 0 -- -- 74
2019-06-03 08:00:00 12 0 Calma 4 Este 0 -- -- 88
2019-06-03 07:00:00 11.3 0 Calma 9 Oeste 0 -- -- 90
2019-06-03 06:00:00 10.5 0 Calma 5 Este 0 -- -- 91
2019-06-03 05:00:00 10.8 0 Calma 8 Sudoeste 0 -- -- 91
2019-06-03 04:00:00 11.4 3 Sudoeste 8 Oeste 0 -- -- 89
2019-06-03 03:00:00 12.4 4 Sudoeste 11 Norte 0 -- -- 87
2019-06-03 02:00:00 11.3 4 Nordeste 8 Norte 0 -- -- 91
2019-06-03 01:00:00 11.4 2 Sur 4 Sudeste 0 -- -- 89
2019-06-03 00:00:00 12.6 2 Sudeste 5 Sudeste 0 -- -- 87
2019-06-02 23:00:00 14 0 Calma 5 Sudeste 0 -- -- 89
2019-06-02 22:00:00 15.3 2 Este 5 Este 0 -- -- 89
2019-06-02 21:00:00 17.1 3 Sudeste 6 Oeste 0 -- -- 84
2019-06-02 20:00:00 18.4 3 Sudeste 6 Sudeste 0.2 -- -- 86
2019-06-02 19:00:00 17.8 4 Este 6 Este 0.2 -- -- 86
2019-06-02 18:00:00 19.2 3 Este 15 Oeste 0.2 -- -- 77
2019-06-02 17:00:00 24.9 10 Oeste 26 Sudoeste 0 -- -- 39
2019-06-02 16:00:00 28.2 12 Sudoeste 27 Sudoeste 0 -- -- 32
2019-06-02 15:00:00 27.6 13 Sudoeste 28 Oeste 0 -- -- 35
2019-06-02 14:00:00 26.6 15 Sudoeste 23 Sudoeste 0 -- -- 35
2019-06-02 13:00:00 25.5 9 Sudoeste 19 Oeste 0 -- -- 39
2019-06-02 12:00:00 24 3 Noroeste 8 Sur 0 -- -- 41
2019-06-02 11:00:00 21.5 3 Nordeste 6 Nordeste 0 -- -- 48
2019-06-02 10:00:00 19.2 3 Este 5 Sudeste 0 -- -- 54
2019-06-02 09:00:00 13.8 3 Este 6 Nordeste 0 -- -- 79
2019-06-02 08:00:00 7.2 2 Norte 6 Sudeste 0 -- -- 97
2019-06-02 07:00:00 6.9 2 Sudeste 4 Sudeste 0 -- -- 97
2019-06-02 06:00:00 7.4 0 Calma 5 Sudeste 0 -- -- 96
2019-06-02 05:00:00 8 0 Calma 5 Sudeste 0 -- -- 94
2019-06-02 04:00:00 8.5 0 Calma 4 Sudeste 0 -- -- 93
2019-06-02 03:00:00 9.2 0 Calma 4 Nordeste 0 -- -- 91
2019-06-02 02:00:00 9.9 2 Este 4 Sudeste 0 -- -- 88
2019-06-02 01:00:00 11 2 Sudeste 4 Sudeste 0 -- -- 85
2019-06-02 00:00:00 12.2 0 Calma 6 Sudeste 0 -- -- 81
2019-06-01 23:00:00 13.8 2 Nordeste 9 Este 0 -- -- 75
2019-06-01 22:00:00 16.2 4 Nordeste 7 Nordeste 0 -- -- 68
2019-06-01 21:00:00 19 2 Sur 16 Noroeste 0 -- -- 62
2019-06-01 20:00:00 22.9 8 Oeste 24 Oeste 0 -- -- 45
2019-06-01 19:00:00 23.3 12 Oeste 28 Oeste 0 -- -- 44
2019-06-01 18:00:00 26 13 Oeste 26 Oeste 0 -- -- 42
2019-06-01 17:00:00 26.1 15 Oeste 27 Sudoeste 0 -- -- 42
2019-06-01 16:00:00 26.7 10 Sudoeste 25 Oeste 0 -- -- 37
2019-06-01 15:00:00 25.7 15 Oeste 24 Oeste 0 -- -- 42
2019-06-01 14:00:00 24.6 15 Oeste 26 Oeste 0 -- -- 45
2019-06-01 13:00:00 23.4 13 Sudoeste 23 Oeste 0 -- -- 46
2019-06-01 12:00:00 21.7 13 Sudoeste 20 Sudoeste 0 -- -- 50
2019-06-01 11:00:00 20.3 3 Este 8 Sudoeste 0 -- -- 48
2019-06-01 10:00:00 18.1 2 Este 5 Nordeste 0 -- -- 47
2019-06-01 09:00:00 12.5 2 Este 5 Este 0 -- -- 75
2019-06-01 08:00:00 5.8 0 Calma 4 Este 0 -- -- 96
2019-06-01 07:00:00 5.4 0 Calma 4 Sudeste 0 -- -- 96
2019-06-01 06:00:00 6.6 3 Nordeste 5 Nordeste 0 -- -- 97
2019-06-01 05:00:00 6.6 0 Calma 5 Nordeste 0 -- -- 95
2019-06-01 04:00:00 7.8 3 Este 4 Nordeste 0 -- -- 93
2019-06-01 03:00:00 7.8 0 Calma 6 Sudoeste 0 -- -- 92
2019-06-01 02:00:00 8.5 3 Sudoeste 6 Este 0 -- -- 91
2019-06-01 01:00:00 9.9 3 Nordeste 6 Nordeste 0 -- -- 88
2019-06-01 00:00:00 10.7 3 Sudeste 4 Este 0 -- -- 85
2019-05-31 23:00:00 12.2 2 Este 6 Sudeste 0 -- -- 80
2019-05-31 22:00:00 14 3 Este 9 Norte 0 -- -- 73
2019-05-31 21:00:00 16 3 Este 7 Este 0 -- -- 68
2019-05-31 20:00:00 19.2 3 Este 18 Oeste 0 -- -- 56
2019-05-31 19:00:00 23.3 12 Oeste 22 Sudoeste 0 -- -- 41
2019-05-31 18:00:00 25.7 4 Sur 15 Oeste 0 -- -- 33
2019-05-31 17:00:00 25.4 6 Oeste 28 Sudoeste 0 -- -- 34
2019-05-31 16:00:00 24.8 18 Sudoeste 30 Sudoeste 0 -- -- 37
2019-05-31 15:00:00 24.6 14 Oeste 27 Sudoeste 0 -- -- 35
2019-05-31 14:00:00 24 13 Oeste 23 Sudoeste 0 -- -- 32
2019-05-31 13:00:00 22.7 15 Sudoeste 26 Sudoeste 0 -- -- 36
2019-05-31 12:00:00 21 6 Sudoeste 13 Sudoeste 0 -- -- 32
2019-05-31 11:00:00 18.8 2 Norte 10 Sudoeste 0 -- -- 33
2019-05-31 10:00:00 16.3 4 Sudoeste 6 Sudoeste 0 -- -- 44
2019-05-31 09:00:00 10.3 3 Este 5 Este 0 -- -- 61
2019-05-31 08:00:00 3.6 3 Este 4 Este 0 -- -- 86
2019-05-31 07:00:00 3.3 3 Este 6 Oeste 0 -- -- 84
2019-05-31 06:00:00 3.5 2 Nordeste 6 Sudeste 0 -- -- 84
2019-05-31 05:00:00 3.7 0 Calma 3 Este 0 -- -- 84
2019-05-31 04:00:00 4.5 2 Sudeste 5 Este 0 -- -- 81
2019-05-31 03:00:00 5 0 Calma 6 Este 0 -- -- 79
2019-05-31 02:00:00 5.9 2 Este 6 Nordeste 0 -- -- 73
2019-05-31 01:00:00 7.3 3 Este 5 Este 0 -- -- 74
2019-05-31 00:00:00 8.9 0 Calma 5 Nordeste 0 -- -- 72
2019-05-30 23:00:00 11.4 2 Sur 21 Nordeste 0 -- -- 65
2019-05-30 22:00:00 16.5 6 Nordeste 31 Este 0 -- -- 45
2019-05-30 21:00:00 17.5 15 Nordeste 39 Este 0 -- -- 46
2019-05-30 20:00:00 18.4 18 Nordeste 35 Este 0 -- -- 40
2019-05-30 19:00:00 21 14 Nordeste 29 Este 0 -- -- 34
2019-05-30 18:00:00 21.7 13 Nordeste 28 Nordeste 0 -- -- 31
2019-05-30 17:00:00 22.2 13 Nordeste 31 Norte 0 -- -- 32
2019-05-30 16:00:00 21.8 18 Nordeste 38 Este 0 -- -- 30
2019-05-30 15:00:00 21.9 19 Nordeste 40 Nordeste 0 -- -- 29
2019-05-30 14:00:00 21.3 22 Nordeste 44 Nordeste 0 -- -- 28
2019-05-30 13:00:00 20.9 23 Nordeste 42 Este 0 -- -- 24
2019-05-30 12:00:00 20.7 18 Nordeste 37 Este 0 -- -- 26
2019-05-30 11:00:00 18.5 10 Sudoeste 23 Sudoeste 0 -- -- 46
2019-05-30 10:00:00 14.2 17 Sudoeste 26 Sudoeste 0 -- -- 54
2019-05-30 09:00:00 11.2 2 Nordeste 5 Este 0 -- -- 68
2019-05-30 08:00:00 4.8 2 Este 6 Este 0 -- -- 90
2019-05-30 07:00:00 4.7 2 Oeste 6 Sudeste 0 -- -- 88
2019-05-30 06:00:00 6.4 3 Nordeste 12 Sudoeste 0 -- -- 80
2019-05-30 05:00:00 9.3 9 Oeste 43 Este 0 -- -- 65
2019-05-30 04:00:00 13.5 21 Nordeste 40 Este 0 -- -- 47
2019-05-30 03:00:00 12.9 14 Nordeste 33 Este 0 -- -- 50
2019-05-30 02:00:00 7 3 Sur 10 Sudoeste 0 -- -- 75
2019-05-30 01:00:00 8.9 6 Sudoeste 27 Este 0 -- -- 64
2019-05-30 00:00:00 12.5 10 Nordeste 35 Norte 0 -- -- 49
2019-05-29 23:00:00 12.2 16 Nordeste 35 Este 0 -- -- 48
2019-05-29 22:00:00 12.1 15 Nordeste 43 Este 0 -- -- 48
2019-05-29 21:00:00 12 20 Nordeste 43 Este 0 -- -- 49
2019-05-29 20:00:00 12.1 20 Nordeste 44 Este 0 -- -- 49
2019-05-29 19:00:00 13.5 20 Nordeste 41 Nordeste 0 -- -- 46
2019-05-29 18:00:00 14.3 21 Nordeste 39 Este 0 -- -- 44
2019-05-29 17:00:00 15.1 19 Nordeste 40 Este 0 -- -- 43
2019-05-29 16:00:00 15.2 17 Nordeste 47 Nordeste 0 -- -- 42
2019-05-29 15:00:00 15.2 15 Nordeste 45 Este 0 -- -- 40
2019-05-29 14:00:00 14.1 20 Nordeste 53 Nordeste 0 -- -- 39
2019-05-29 13:00:00 13.5 22 Nordeste 58 Nordeste 0 -- -- 39
2019-05-29 12:00:00 12.9 21 Nordeste 45 Nordeste 0 -- -- 38
2019-05-29 11:00:00 11.9 15 Nordeste 40 Este 0 -- -- 34
2019-05-29 10:00:00 12 15 Nordeste 40 Este 0 -- -- 40
2019-05-29 09:00:00 10.3 18 Nordeste 39 Este 0 -- -- 46
2019-05-29 08:00:00 8.1 18 Nordeste 35 Este 0 -- -- 50
2019-05-29 07:00:00 7.6 13 Nordeste 37 Este 0 -- -- 54
2019-05-29 06:00:00 8 13 Nordeste 36 Nordeste 0 -- -- 53
2019-05-29 05:00:00 8.2 11 Nordeste 30 Nordeste 0 -- -- 52
2019-05-29 04:00:00 8.2 12 Nordeste 33 Este 0 -- -- 52
2019-05-29 03:00:00 8.1 16 Nordeste 42 Nordeste 0 -- -- 53
2019-05-29 02:00:00 8.1 21 Este 38 Nordeste 0 -- -- 56
2019-05-29 01:00:00 8.6 16 Nordeste 38 Nordeste 0 -- -- 52
2019-05-29 00:00:00 8.7 16 Nordeste 39 Este 0 -- -- 55
2019-05-28 23:00:00 9.1 12 Nordeste 39 Este 0 -- -- 50
2019-05-28 22:00:00 9.4 13 Nordeste 37 Nordeste 0 -- -- 49
2019-05-28 21:00:00 10.3 14 Nordeste 31 Este 0 -- -- 51
2019-05-28 20:00:00 11 15 Nordeste 40 Nordeste 0 -- -- 51
2019-05-28 19:00:00 13.2 25 Nordeste 47 Este 0 -- -- 45
2019-05-28 18:00:00 14.5 23 Nordeste 51 Este 0 -- -- 39
2019-05-28 17:00:00 14.7 27 Nordeste 57 Este 0 -- -- 43
2019-05-28 16:00:00 15.6 29 Nordeste 58 Este 0 -- -- 40
2019-05-28 15:00:00 16.6 20 Nordeste 52 Este 0 -- -- 37
2019-05-28 14:00:00 15.9 25 Nordeste 51 Nordeste 0 -- -- 37
2019-05-28 13:00:00 15.8 21 Nordeste 44 Nordeste 0 -- -- 35
2019-05-28 12:00:00 15.4 17 Nordeste 38 Norte 0 -- -- 37
2019-05-28 11:00:00 15.7 13 Nordeste 31 Nordeste 0 -- -- 30
2019-05-28 10:00:00 14.9 11 Norte 28 Norte 0 -- -- 35
2019-05-28 09:00:00 12.8 9 Nordeste 28 Este 0 -- -- 41
2019-05-28 08:00:00 6.8 4 Este 17 Sudoeste 0 -- -- 68
2019-05-28 07:00:00 10.3 6 Norte 26 Norte 0 -- -- 47
2019-05-28 06:00:00 10.8 11 Nordeste 33 Nordeste 0 -- -- 48
2019-05-28 05:00:00 10.4 9 Nordeste 27 Este 0 -- -- 52
2019-05-28 04:00:00 5.8 4 Sur 10 Oeste 0 -- -- 73
2019-05-28 03:00:00 6.2 2 Nordeste 8 Este 0 -- -- 80
2019-05-28 02:00:00 9.9 4 Este 20 Norte 0 -- -- 64
2019-05-28 01:00:00 12.6 9 Nordeste 30 Este 0 -- -- 54
2019-05-28 00:00:00 13.3 12 Nordeste 39 Nordeste 0 -- -- 53
2019-05-27 23:00:00 13.5 13 Nordeste 32 Este 0 -- -- 57
2019-05-27 22:00:00 14.2 15 Nordeste 41 Este 0 -- -- 52
2019-05-27 21:00:00 14.9 11 Nordeste 32 Este 0 -- -- 51
2019-05-27 20:00:00 15.4 18 Nordeste 42 Este 0 -- -- 48
2019-05-27 19:00:00 16.8 21 Nordeste 45 Nordeste 0 -- -- 49
2019-05-27 18:00:00 18.4 13 Nordeste 42 Este 0 -- -- 47
2019-05-27 17:00:00 17.8 19 Nordeste 40 Este 0 -- -- 50
2019-05-27 16:00:00 19.4 16 Nordeste 41 Nordeste 0 -- -- 43
2019-05-27 15:00:00 17.8 19 Nordeste 40 Nordeste 0 -- -- 47
2019-05-27 14:00:00 19.9 19 Nordeste 37 Este 0 -- -- 41
2019-05-27 13:00:00 20 17 Nordeste 39 Este 0 -- -- 38
2019-05-27 12:00:00 19.3 17 Nordeste 36 Este 0 -- -- 38
2019-05-27 11:00:00 16 3 Oeste 10 Sudoeste 0 -- -- 52
2019-05-27 10:00:00 12.2 3 Oeste 10 Sudoeste 0 -- -- 65
2019-05-27 09:00:00 9.7 2 Oeste 10 Sur 0 -- -- 72
2019-05-27 08:00:00 3.7 2 Nordeste 7 Sudoeste 0 -- -- 95
2019-05-27 07:00:00 2.9 3 Este 6 Oeste 0 -- -- 95
2019-05-27 06:00:00 3.3 3 Este 8 Este 0 -- -- 94
2019-05-27 05:00:00 3.8 3 Este 7 Noroeste 0 -- -- 91
2019-05-27 04:00:00 3.9 3 Oeste 5 Oeste 0 -- -- 92
2019-05-27 03:00:00 4.5 0 Calma 5 Sudeste 0 -- -- 89
2019-05-27 02:00:00 5.8 2 Este 7 Sudeste 0 -- -- 85
2019-05-27 01:00:00 7.8 0 Calma 14 Sudoeste 0 -- -- 76
2019-05-27 00:00:00 11 9 Oeste 30 Oeste 0 -- -- 58